Time;durP1;ratioP1;P1;durP2;ratioP2;P2;SDS_P1;SDS_P2;PMS_P1;PMS_P2;Temp;Humidity;BMP_temperature;BMP_pressure;BME280_temperature;BME280_humidity;BME280_pressure;Samples;Min_cycle;Max_cycle;Signal;HPM_P1;HPM_P2
2022/08/09 00:01:13;;;;;;;17.25;9.20;;;17.40;99.90;;;;;;5031230;28;20021;-65
2022/08/09 00:03:39;;;;;;;16.08;9.20;;;;;;;;;;5031199;28;20028;-64
2022/08/09 00:06:06;;;;;;;18.00;9.77;;;;;;;;;;5029935;28;20025;-65
2022/08/09 00:08:32;;;;;;;17.48;9.80;;;;;;;;;;5029385;28;20375;-65
2022/08/09 00:10:59;;;;;;;15.63;9.43;;;17.50;99.90;;;;;;5031489;28;20117;-65
2022/08/09 00:13:25;;;;;;;15.55;9.10;;;17.30;99.90;;;;;;5031567;28;20100;-63
2022/08/09 00:15:51;;;;;;;17.52;9.65;;;17.20;99.90;;;;;;5031663;28;20456;-66
2022/08/09 00:18:16;;;;;;;16.17;9.38;;;17.20;99.90;;;;;;5030733;28;20397;-65
2022/08/09 00:20:42;;;;;;;16.60;9.10;;;17.20;99.90;;;;;;5031588;28;20033;-64
2022/08/09 00:23:08;;;;;;;19.05;9.68;;;17.10;99.90;;;;;;5030818;28;20366;-64
2022/08/09 00:25:33;;;;;;;17.30;9.60;;;17.10;99.90;;;;;;5035178;28;20128;-63
2022/08/09 00:27:59;;;;;;;18.88;10.13;;;;;;;;;;5034377;28;20393;-65
2022/08/09 00:30:25;;;;;;;15.50;9.10;;;;;;;;;;5034901;28;20026;-64
2022/08/09 00:32:51;;;;;;;16.83;9.10;;;;;;;;;;5034962;28;20378;-63
2022/08/09 00:35:17;;;;;;;14.90;8.70;;;;;;;;;;5034909;28;20125;-63
2022/08/09 00:37:43;;;;;;;16.15;9.27;;;;;;;;;;5034423;28;20084;-65
2022/08/09 00:40:10;;;;;;;16.40;9.35;;;;;;;;;;5033575;28;20164;-65
2022/08/09 00:42:36;;;;;;;15.48;9.52;;;;;;;;;;5033503;28;20454;-66
2022/08/09 00:45:03;;;;;;;16.33;9.48;;;;;;;;;;5034682;28;20026;-65
2022/08/09 00:47:29;;;;;;;16.83;10.00;;;;;;;;;;5032627;28;20034;-65
2022/08/09 00:49:55;;;;;;;19.15;10.10;;;;;;;;;;5034745;28;20034;-66
2022/08/09 00:52:23;;;;;;;15.90;9.55;;;;;;;;;;5033433;28;20034;-65
2022/08/09 00:54:52;;;;;;;17.58;9.75;;;;;;;;;;5034725;28;20022;-65
2022/08/09 00:57:18;;;;;;;16.05;9.65;;;;;;;;;;5033788;28;20057;-64
2022/08/09 00:59:44;;;;;;;16.55;9.95;;;;;;;;;;5034128;28;20032;-65
2022/08/09 01:02:10;;;;;;;17.25;9.50;;;;;;;;;;5034403;28;20033;-63
2022/08/09 01:04:49;;;;;;;17.60;9.60;;;;;;;;;;5034435;28;20371;-64
2022/08/09 01:07:21;;;;;;;17.15;10.23;;;;;;;;;;5032428;28;20017;-62
2022/08/09 01:09:47;;;;;;;16.48;10.40;;;;;;;;;;5033872;28;20629;-63
2022/08/09 01:12:36;;;;;;;16.33;10.45;;;;;;;;;;5032964;28;20037;-63
2022/08/09 01:15:04;;;;;;;17.60;10.07;;;;;;;;;;5028500;28;20064;-63
2022/08/09 01:17:36;;;;;;;16.42;10.00;;;17.10;99.90;;;;;;5033360;28;20033;-63
2022/08/09 01:20:26;;;;;;;16.45;9.98;;;16.60;99.90;;;;;;5033973;28;20025;-63
2022/08/09 01:23:21;;;;;;;17.00;10.43;;;16.60;99.90;;;;;;5034382;28;20025;-63
2022/08/09 01:26:23;;;;;;;17.02;10.40;;;16.50;99.90;;;;;;5032704;28;20025;-63
2022/08/09 01:28:51;;;;;;;16.60;9.75;;;;;;;;;;5031888;28;20021;-63
2022/08/09 01:31:20;;;;;;;16.48;10.15;;;;;;;;;;5032724;28;20022;-64
2022/08/09 01:33:47;;;;;;;18.20;10.40;;;;;;;;;;5033980;28;20029;-63
2022/08/09 01:36:14;;;;;;;17.70;10.00;;;;;;;;;;5032880;28;20377;-63
2022/08/09 01:38:46;;;;;;;17.95;10.80;;;16.40;99.90;;;;;;5032913;28;20366;-63
2022/08/09 01:41:15;;;;;;;16.42;9.48;;;16.40;99.90;;;;;;5032463;28;20486;-63
2022/08/09 01:43:40;;;;;;;;;;;;;;;;;;5033958;28;20076;-63
2022/08/09 01:46:07;;;;;;;16.75;10.20;;;;;;;;;;5032354;28;19908;-63
2022/08/09 01:48:34;;;;;;;17.00;10.63;;;16.40;99.90;;;;;;5032685;28;20025;-63
2022/08/09 01:51:01;;;;;;;18.38;10.20;;;16.30;99.90;;;;;;5032273;28;20520;-63
2022/08/09 01:53:28;;;;;;;18.58;10.35;;;;;;;;;;5033422;28;20029;-63
2022/08/09 01:55:55;;;;;;;17.35;10.30;;;;;;;;;;5033366;28;20516;-63
2022/08/09 01:58:21;;;;;;;17.15;10.77;;;;;;;;;;5031193;28;20091;-61
2022/08/09 02:00:49;;;;;;;16.88;10.10;;;;;;;;;;5033120;28;20474;-63
2022/08/09 02:03:15;;;;;;;16.83;10.50;;;;;;;;;;5033470;28;20435;-62
2022/08/09 02:05:43;;;;;;;16.17;10.18;;;;;;;;;;5032110;28;20474;-65
2022/08/09 02:08:12;;;;;;;16.60;10.25;;;;;;;;;;5033477;28;20037;-63
2022/08/09 02:10:43;;;;;;;18.58;11.18;;;;;;;;;;5033047;28;20029;-63
2022/08/09 02:13:11;;;;;;;16.95;10.70;;;;;;;;;;5033037;28;20032;-63
2022/08/09 02:15:39;;;;;;;18.02;10.90;;;;;;;;;;5033044;28;20112;-63
2022/08/09 02:18:06;;;;;;;17.85;11.18;;;;;;;;;;5032235;28;20033;-63
2022/08/09 02:20:34;;;;;;;18.23;10.68;;;;;;;;;;5031653;28;20031;-62
2022/08/09 02:23:09;;;;;;;18.60;11.70;;;;;;;;;;5031969;28;20026;-62
2022/08/09 02:25:38;;;;;;;18.48;11.65;;;;;;;;;;5031849;28;20131;-62
2022/08/09 02:28:10;;;;;;;19.20;11.02;;;;;;;;;;5032521;28;20049;-62
2022/08/09 02:30:39;;;;;;;17.60;11.20;;;;;;;;;;5032982;28;20112;-61
2022/08/09 02:33:05;;;;;;;16.73;11.45;;;;;;;;;;5032896;28;20029;-63
2022/08/09 02:35:33;;;;;;;18.55;11.40;;;;;;;;;;5032534;28;20029;-64
2022/08/09 02:38:00;;;;;;;18.90;11.80;;;;;;;;;;5031641;28;20025;-63
2022/08/09 02:40:27;;;;;;;17.15;11.82;;;;;;;;;;5031389;28;20029;-62
2022/08/09 02:42:54;;;;;;;17.63;12.07;;;;;;;;;;5032643;28;20433;-62
2022/08/09 02:45:20;;;;;;;19.13;11.07;;;;;;;;;;5031234;28;20382;-62
2022/08/09 02:47:47;;;;;;;17.85;11.98;;;;;;;;;;5031740;28;20024;-62
2022/08/09 02:50:15;;;;;;;18.55;11.68;;;;;;;;;;5031091;28;20021;-62
2022/08/09 02:52:41;;;;;;;;;;;;;;;;;;5031686;28;20072;-63
2022/08/09 02:55:08;;;;;;;18.88;12.57;;;;;;;;;;5031133;28;19912;-62
2022/08/09 02:57:36;;;;;;;18.60;12.30;;;;;;;;;;5031370;28;20474;-63
2022/08/09 03:00:03;;;;;;;20.38;13.05;;;;;;;;;;5030952;28;20030;-63
2022/08/09 03:02:29;;;;;;;18.35;11.57;;;;;;;;;;5031040;28;20017;-63
2022/08/09 03:04:56;;;;;;;18.33;11.98;;;;;;;;;;5030958;28;20397;-63
2022/08/09 03:07:23;;;;;;;20.63;12.13;;;;;;;;;;5031084;28;20497;-63
2022/08/09 03:09:50;;;;;;;17.75;12.30;;;;;;;;;;5031043;28;20029;-62
2022/08/09 03:12:17;;;;;;;20.10;12.90;;;;;;;;;;5032238;28;20026;-63
2022/08/09 03:14:43;;;;;;;20.15;12.73;;;;;;;;;;5032194;28;20025;-63
2022/08/09 03:17:10;;;;;;;20.55;13.02;;;;;;;;;;5031712;28;20201;-61
2022/08/09 03:19:36;;;;;;;19.02;12.77;;;;;;;;;;5030615;28;20033;-63
2022/08/09 03:22:02;;;;;;;18.65;12.80;;;;;;;;;;5032025;28;20116;-63
2022/08/09 03:24:28;;;;;;;18.98;12.80;;;16.30;99.90;;;;;;5032043;28;20030;-63
2022/08/09 03:26:54;;;;;;;18.90;13.07;;;15.70;99.90;;;;;;5031840;28;20053;-63
2022/08/09 03:29:22;;;;;;;18.88;12.95;;;15.70;99.90;;;;;;5031145;28;20036;-63
2022/08/09 03:31:48;;;;;;;18.60;12.23;;;15.70;99.90;;;;;;5031942;28;20434;-63
2022/08/09 03:34:14;;;;;;;20.27;13.98;;;15.60;99.90;;;;;;5030683;28;20075;-63
2022/08/09 03:36:40;;;;;;;17.40;13.07;;;15.50;99.90;;;;;;5032124;28;20489;-63
2022/08/09 03:39:06;;;;;;;18.70;13.13;;;;;;;;;;5030729;28;20029;-63
2022/08/09 03:41:32;;;;;;;19.88;13.30;;;;;;;;;;5031769;28;20075;-63
2022/08/09 03:43:58;;;;;;;21.95;13.30;;;;;;;;;;5031486;28;20075;-63
2022/08/09 03:46:23;;;;;;;19.23;12.80;;;;;;;;;;5031671;28;20036;-63
2022/08/09 03:48:52;;;;;;;23.13;15.50;;;;;;;;;;5030851;28;20034;-63
2022/08/09 03:51:20;;;;;;;24.75;18.23;;;;;;;;;;5030562;28;20025;-63
2022/08/09 03:53:46;;;;;;;19.33;13.05;;;;;;;;;;5031766;28;20080;-64
2022/08/09 03:56:13;;;;;;;21.25;13.68;;;;;;;;;;5031491;28;20080;-63
2022/08/09 03:58:39;;;;;;;21.90;14.35;;;;;;;;;;5032217;28;20393;-64
2022/08/09 04:01:05;;;;;;;18.58;13.15;;;;;;;;;;5035060;28;20120;-63
2022/08/09 04:03:32;;;;;;;21.00;13.77;;;;;;;;;;5035356;28;20025;-63
2022/08/09 04:05:58;;;;;;;22.20;13.35;;;;;;;;;;5034102;28;20032;-63
2022/08/09 04:08:24;;;;;;;24.83;13.95;;;;;;;;;;5032990;28;20030;-62
2022/08/09 04:10:50;;;;;;;19.08;13.43;;;;;;;;;;5035166;28;20116;-64
2022/08/09 04:13:16;;;;;;;20.33;13.70;;;;;;;;;;5035181;28;20461;-64
2022/08/09 04:15:43;;;;;;;19.48;13.68;;;;;;;;;;5035206;28;20346;-63
2022/08/09 04:18:10;;;;;;;22.90;14.18;;;;;;;;;;5034375;28;20033;-63
2022/08/09 04:20:36;;;;;;;22.48;14.18;;;;;;;;;;5035187;28;20497;-64
2022/08/09 04:23:02;;;;;;;21.38;13.93;;;;;;;;;;5034905;28;20029;-64
2022/08/09 04:25:29;;;;;;;20.50;14.32;;;;;;;;;;5035133;28;20068;-63
2022/08/09 04:27:56;;;;;;;24.25;14.45;;;;;;;;;;5032729;28;20094;-65
2022/08/09 04:30:22;;;;;;;20.08;14.32;;;;;;;;;;5034938;28;20029;-64
2022/08/09 04:32:48;;;;;;;19.10;13.60;;;;;;;;;;5033624;28;20228;-63
2022/08/09 04:35:14;;;;;;;22.08;15.88;;;;;;;;;;5034884;28;20520;-64
2022/08/09 04:37:40;;;;;;;21.20;14.75;;;;;;;;;;5032787;28;20037;-64
2022/08/09 04:40:07;;;;;;;21.10;14.50;;;;;;;;;;5034593;28;20040;-63
2022/08/09 04:42:33;;;;;;;19.63;13.45;;;;;;;;;;5034597;28;20031;-63
2022/08/09 04:45:00;;;;;;;21.70;14.07;;;;;;;;;;5034551;28;20025;-63
2022/08/09 04:47:27;;;;;;;20.08;14.50;;;;;;;;;;5033741;28;20071;-62
2022/08/09 04:49:53;;;;;;;21.05;15.02;;;;;;;;;;5034396;28;20026;-63
2022/08/09 04:52:19;;;;;;;23.17;14.43;;;;;;;;;;5034419;28;20073;-63
2022/08/09 04:54:47;;;;;;;21.08;13.88;;;;;;;;;;5034519;28;20423;-63
2022/08/09 04:57:13;;;;;;;20.40;13.88;;;;;;;;;;5033589;28;20037;-60
2022/08/09 04:59:39;;;;;;;19.00;13.68;;;;;;;;;;5032710;28;20021;-63
2022/08/09 05:02:05;;;;;;;22.58;14.55;;;;;;;;;;5032669;28;20044;-62
2022/08/09 05:04:31;;;;;;;22.42;14.25;;;;;;;;;;5032960;28;20029;-66
2022/08/09 05:06:57;;;;;;;22.17;15.10;;;;;;;;;;5032665;28;20022;-62
2022/08/09 05:09:23;;;;;;;21.02;14.68;;;;;;;;;;5033115;28;20037;-62
2022/08/09 05:11:49;;;;;;;19.75;13.70;;;;;;;;;;5031521;28;20477;-63
2022/08/09 05:14:16;;;;;;;19.83;13.23;;;;;;;;;;5029161;28;20033;-63
2022/08/09 05:16:42;;;;;;;19.30;13.95;;;;;;;;;;5024304;28;20393;-63
2022/08/09 05:19:08;;;;;;;22.25;14.07;;;;;;;;;;5032973;28;20025;-63
2022/08/09 05:21:34;;;;;;;24.23;14.93;;;;;;;;;;5033452;28;20017;-63
2022/08/09 05:24:00;;;;;;;20.02;13.55;;;;;;;;;;5030473;28;20021;-63
2022/08/09 05:26:26;;;;;;;23.90;14.38;;;;;;;;;;5033673;28;20041;-63
2022/08/09 05:28:52;;;;;;;22.52;14.25;;;;;;;;;;5032831;28;20021;-62
2022/08/09 05:31:18;;;;;;;21.23;13.27;;;;;;;;;;5033349;28;20099;-62
2022/08/09 05:33:44;;;;;;;20.88;13.75;;;;;;;;;;5033320;28;20466;-63
2022/08/09 05:36:10;;;;;;;22.05;13.65;;;;;;;;;;5033099;28;20048;-65
2022/08/09 05:38:36;;;;;;;19.42;13.45;;;;;;;;;;5032306;28;20017;-63
2022/08/09 05:41:02;;;;;;;20.63;13.73;;;;;;;;;;5033049;28;20064;-62
2022/08/09 05:43:28;;;;;;;22.88;13.00;;;;;;;;;;5032216;28;20033;-63
2022/08/09 05:45:54;;;;;;;22.95;14.70;;;;;;;;;;5033414;28;20027;-64
2022/08/09 05:48:20;;;;;;;26.27;15.38;;;;;;;;;;5032260;28;20025;-64
2022/08/09 05:50:47;;;;;;;19.25;13.13;;;;;;;;;;5032952;28;20038;-63
2022/08/09 05:53:13;;;;;;;21.60;13.85;;;;;;;;;;5032702;28;20104;-63
2022/08/09 05:55:39;;;;;;;23.20;13.70;;;;;;;;;;5032848;28;20100;-63
2022/08/09 05:58:05;;;;;;;27.55;14.52;;;;;;;;;;5030795;28;20123;-63
2022/08/09 06:00:31;;;;;;;21.48;13.45;;;;;;;;;;5031603;28;20040;-63
2022/08/09 06:02:58;;;;;;;18.27;12.68;;;;;;;;;;5031424;28;20032;-63
2022/08/09 06:05:25;;;;;;;20.35;13.55;;;;;;;;;;5031558;28;20029;-64
2022/08/09 06:07:51;;;;;;;20.50;13.07;;;;;;;;;;5031803;28;20510;-64
2022/08/09 06:10:18;;;;;;;20.67;14.38;;;;;;;;;;5032120;28;20029;-64
2022/08/09 06:12:44;;;;;;;20.17;12.75;;;;;;;;;;5032438;28;20465;-64
2022/08/09 06:15:10;;;;;;;18.88;12.93;;;;;;;;;;5032537;28;20104;-64
2022/08/09 06:17:36;;;;;;;18.85;12.82;;;;;;;;;;5031633;28;20108;-64
2022/08/09 06:20:03;;;;;;;22.30;13.02;;;;;;;;;;5031000;28;20049;-63
2022/08/09 06:22:29;;;;;;;18.92;12.65;;;;;;;;;;5031855;28;20101;-63
2022/08/09 06:24:55;;;;;;;21.45;14.90;;;;;;;;;;5032170;28;20401;-64
2022/08/09 06:27:21;;;;;;;20.45;12.90;;;;;;;;;;5030333;28;20037;-65
2022/08/09 06:29:47;;;;;;;19.23;12.00;;;;;;;;;;5032271;28;20033;-65
2022/08/09 06:32:13;;;;;;;19.98;12.90;;;;;;;;;;5032006;28;20462;-64
2022/08/09 06:34:39;;;;;;;19.75;12.07;;;;;;;;;;5032248;28;20055;-64
2022/08/09 06:37:05;;;;;;;22.77;13.15;;;;;;;;;;5031027;28;20460;-63
2022/08/09 06:39:31;;;;;;;21.73;11.57;;;;;;;;;;5031349;28;20034;-61
2022/08/09 06:41:57;;;;;;;17.02;11.75;;;;;;;;;;5032429;28;20022;-64
2022/08/09 06:44:23;;;;;;;20.52;12.68;;;;;;;;;;5030897;28;20481;-63
2022/08/09 06:46:50;;;;;;;18.63;12.00;;;;;;;;;;5032182;28;20028;-63
2022/08/09 06:49:16;;;;;;;18.58;12.30;;;;;;;;;;5030006;28;20027;-62
2022/08/09 06:51:42;;;;;;;19.40;12.15;;;;;;;;;;5032077;28;20431;-65
2022/08/09 06:54:08;;;;;;;17.85;11.15;;;;;;;;;;5031749;28;20036;-64
2022/08/09 06:56:34;;;;;;;17.25;11.07;;;;;;;;;;5032084;28;20028;-63
2022/08/09 06:59:00;;;;;;;18.33;11.63;;;;;;;;;;5031456;28;20025;-64
2022/08/09 07:01:27;;;;;;;20.45;11.98;;;;;;;;;;5033277;28;20028;-63
2022/08/09 07:03:53;;;;;;;20.95;12.38;;;;;;;;;;5031256;28;20116;-64
2022/08/09 07:06:19;;;;;;;22.08;11.80;;;;;;;;;;5032405;28;20529;-63
2022/08/09 07:08:45;;;;;;;18.50;11.10;;;;;;;;;;5031100;28;20037;-63
2022/08/09 07:11:11;;;;;;;20.05;11.50;;;;;;;;;;5030638;28;20072;-64
2022/08/09 07:13:37;;;;;;;17.50;11.00;;;;;;;;;;5031670;28;20370;-64
2022/08/09 07:16:03;;;;;;;19.10;11.88;;;;;;;;;;5031817;28;20394;-64
2022/08/09 07:18:29;;;;;;;18.42;11.15;;;;;;;;;;5030766;28;20025;-62
2022/08/09 07:20:55;;;;;;;18.45;11.80;;;;;;;;;;5031570;28;20596;-64
2022/08/09 07:23:21;;;;;;;17.15;11.45;;;;;;;;;;5031602;28;20025;-64
2022/08/09 07:25:48;;;;;;;17.55;11.48;;;;;;;;;;5031847;28;20021;-64
2022/08/09 07:28:14;;;;;;;19.13;11.30;;;;;;;;;;5030729;28;20560;-64
2022/08/09 07:30:40;;;;;;;20.48;11.13;;;;;;;;;;5031719;28;20116;-66
2022/08/09 07:33:06;;;;;;;18.27;10.63;;;;;;;;;;5032214;28;20052;-64
2022/08/09 07:35:32;;;;;;;21.40;11.27;;;;;;;;;;5035570;28;20552;-65
2022/08/09 07:37:58;;;;;;;18.00;11.48;;;;;;;;;;5033440;28;20041;-65
2022/08/09 07:40:24;;;;;;;17.48;11.30;;;;;;;;;;5035744;28;20049;-63
2022/08/09 07:42:58;;;;;;;19.35;11.55;;;;;;;;;;5035621;28;20017;-63
2022/08/09 07:45:25;;;;;;;18.95;11.50;;;;;;;;;;5035110;28;20067;-64
2022/08/09 07:47:52;;;;;;;17.98;11.18;;;;;;;;;;5032384;28;20481;-64
2022/08/09 07:50:22;;;;;;;24.73;11.93;;;;;;;;;;5033958;28;20124;-64
2022/08/09 07:52:49;;;;;;;18.80;11.25;;;;;;;;;;5035816;28;20188;-62
2022/08/09 07:55:15;;;;;;;17.60;11.30;;;;;;;;;;5035166;28;20026;-63
2022/08/09 07:57:41;;;;;;;17.92;11.05;;;;;;;;;;5032223;28;20120;-61
2022/08/09 08:00:07;;;;;;;17.30;10.98;;;;;;;;;;4680908;28;9999861;-63
2022/08/09 08:02:33;;;;;;;17.77;10.93;;;;;;;;;;5030434;28;20037;-63
2022/08/09 08:04:59;;;;;;;17.27;10.75;;;;;;;;;;5031932;28;20029;-60
2022/08/09 08:07:26;;;;;;;21.63;10.95;;;;;;;;;;5031311;28;20025;-64
2022/08/09 08:09:52;;;;;;;17.98;11.05;;;;;;;;;;5033399;28;20048;-63
2022/08/09 08:12:18;;;;;;;18.02;10.93;;;;;;;;;;5031749;28;20036;-64
2022/08/09 08:14:45;;;;;;;16.20;10.32;;;;;;;;;;5022633;28;20054;-64
2022/08/09 08:17:11;;;;;;;18.23;11.20;;;;;;;;;;5026799;28;20034;-65
2022/08/09 08:19:37;;;;;;;21.08;11.20;;;;;;;;;;5031365;28;20394;-63
2022/08/09 08:22:03;;;;;;;16.63;10.85;;;;;;;;;;5031606;28;20021;-64
2022/08/09 08:24:29;;;;;;;17.38;10.70;;;;;;;;;;5031591;28;20385;-62
2022/08/09 08:26:56;;;;;;;16.98;10.43;;;;;;;;;;5031721;28;20438;-65
2022/08/09 08:29:22;;;;;;;19.88;10.98;;;;;;;;;;5030740;28;20060;-63
2022/08/09 08:31:48;;;;;;;17.70;12.82;;;;;;;;;;5030269;28;20187;-63
2022/08/09 08:34:14;;;;;;;18.05;11.20;;;;;;;;;;5031015;28;20050;-61
2022/08/09 08:36:40;;;;;;;17.42;11.32;;;;;;;;;;5031291;28;20555;-64
2022/08/09 08:39:06;;;;;;;16.38;11.50;;;;;;;;;;5030502;28;20159;-64
2022/08/09 08:41:32;;;;;;;20.27;13.50;;;;;;;;;;5031212;28;20044;-64
2022/08/09 08:43:58;;;;;;;17.23;12.65;;;;;;;;;;5030820;28;20032;-64
2022/08/09 08:46:34;;;;;;;16.05;11.77;;;;;;;;;;5029261;28;20382;-64
2022/08/09 08:49:01;;;;;;;21.20;12.48;;;;;;;;;;5030647;28;20025;-62
2022/08/09 08:51:27;;;;;;;20.05;12.57;;;;;;;;;;5030991;28;20021;-63
2022/08/09 08:53:53;;;;;;;19.55;12.93;;;;;;;;;;5031019;28;20025;-64
2022/08/09 08:56:20;;;;;;;17.15;12.18;;;;;;;;;;5031174;28;20025;-62
2022/08/09 08:58:47;;;;;;;17.08;11.77;;;;;;;;;;5029717;28;20120;-62
2022/08/09 09:01:15;;;;;;;20.45;12.38;;;;;;;;;;5030643;28;20033;-62
2022/08/09 09:03:42;;;;;;;17.42;12.23;;;;;;;;;;5029444;28;20041;-63
2022/08/09 09:06:09;;;;;;;17.75;12.32;;;;;;;;;;5030926;28;20033;-62
2022/08/09 09:08:37;;;;;;;17.67;11.70;;;;;;;;;;5030022;28;20053;-65
2022/08/09 09:11:04;;;;;;;18.48;12.40;;;;;;;;;;5030158;28;20347;-63
2022/08/09 09:13:40;;;;;;;19.85;12.30;;;;;;;;;;5031065;28;20423;-63
2022/08/09 09:16:08;;;;;;;17.77;12.77;;;;;;;;;;5011199;28;20030;-61
2022/08/09 09:18:34;;;;;;;18.37;12.30;;;;;;;;;;5010466;28;20038;-64
2022/08/09 09:21:00;;;;;;;21.52;12.75;;;;;;;;;;5010878;28;20053;-64
2022/08/09 09:23:40;;;;;;;16.42;12.13;;;;;;;;;;5008807;28;20049;-63
2022/08/09 09:26:06;;;;;;;18.05;12.38;;;;;;;;;;5009480;28;20502;-65
2022/08/09 09:28:33;;;;;;;18.25;12.20;;;;;;;;;;5010060;28;20022;-64
2022/08/09 09:31:00;;;;;;;17.35;12.38;;;;;;;;;;5010578;28;20033;-62
2022/08/09 09:33:33;;;;;;;17.50;12.30;;;;;;;;;;5014905;28;20116;-63
2022/08/09 09:36:01;;;;;;;17.83;12.02;;;;;;;;;;5030069;28;20029;-63
2022/08/09 09:38:46;;;;;;;20.77;13.18;;;;;;;;;;5029251;28;20030;-62
2022/08/09 09:41:27;;;;;;;16.48;12.38;;;;;;;;;;5031864;28;20036;-62
2022/08/09 09:43:54;;;;;;;16.92;12.07;;;;;;;;;;5032006;28;20078;-63
2022/08/09 09:46:20;;;;;;;17.95;12.20;;;;;;;;;;5031939;28;20022;-63
2022/08/09 09:48:59;;;;;;;18.70;12.35;;;;;;;;;;5031702;28;20022;-63
2022/08/09 09:51:28;;;;;;;19.02;12.52;;;;;;;;;;5031054;28;20037;-63
2022/08/09 09:54:04;;;;;;;16.08;12.30;;;;;;;;;;5032727;28;20105;-63
2022/08/09 09:56:31;;;;;;;17.58;12.05;;;;;;;;;;5030510;28;20028;-64
2022/08/09 09:58:58;;;;;;;17.75;12.50;;;;;;;;;;5031930;28;20029;-64
2022/08/09 10:01:24;;;;;;;18.10;12.73;;;;;;;;;;5032806;28;20020;-65
2022/08/09 10:03:51;;;;;;;16.77;11.90;;;;;;;;;;5032598;28;20017;-64
2022/08/09 10:06:17;;;;;;;16.67;12.00;;;;;;;;;;5032374;28;20021;-64
2022/08/09 10:08:44;;;;;;;19.00;12.20;;;;;;;;;;5031390;28;20030;-64
2022/08/09 10:11:19;;;;;;;16.13;11.68;;;;;;;;;;5029989;28;20435;-64
2022/08/09 10:13:46;;;;;;;16.33;12.10;;;;;;;;;;5032116;28;20024;-64
2022/08/09 10:16:13;;;;;;;16.90;12.40;;;15.50;99.90;;;;;;5032163;28;20029;-63
2022/08/09 10:18:50;;;;;;;21.08;13.13;;;25.40;96.60;;;;;;5031360;28;20101;-63
2022/08/09 10:21:16;;;;;;;16.57;11.93;;;25.10;96.70;;;;;;5031919;28;20403;-63
2022/08/09 10:23:43;;;;;;;17.50;12.10;;;25.10;95.20;;;;;;5042153;28;20044;-62
2022/08/09 10:26:09;;;;;;;16.55;12.35;;;25.10;96.10;;;;;;5042258;28;20032;-63
2022/08/09 10:28:36;;;;;;;16.40;12.23;;;25.10;95.70;;;;;;5037433;28;20024;-63
2022/08/09 10:31:02;;;;;;;18.00;12.25;;;25.20;95.60;;;;;;5031091;28;20021;-64
2022/08/09 10:33:28;;;;;;;16.45;11.73;;;25.40;94.90;;;;;;5031792;28;20017;-63
2022/08/09 10:35:55;;;;;;;16.83;12.02;;;25.80;95.70;;;;;;5031934;28;20044;-64
2022/08/09 10:38:21;;;;;;;16.27;12.07;;;26.00;95.50;;;;;;5031327;28;20029;-62
2022/08/09 10:40:47;;;;;;;17.92;11.77;;;25.80;94.70;;;;;;5031628;28;20026;-60
2022/08/09 10:43:13;;;;;;;17.58;11.38;;;25.80;96.30;;;;;;5031403;28;20507;-60
2022/08/09 10:45:42;;;;;;;16.17;11.80;;;25.80;94.30;;;;;;5031463;28;20060;-61
2022/08/09 10:48:48;;;;;;;15.95;12.13;;;26.00;95.80;;;;;;5030699;28;20025;-60
2022/08/09 10:51:24;;;;;;;16.70;11.60;;;26.00;95.40;;;;;;5029392;28;20560;-62
2022/08/09 10:54:12;;;;;;;19.88;11.45;;;26.20;95.20;;;;;;5029863;28;20363;-61
2022/08/09 10:56:42;;;;;;;17.95;12.15;;;26.30;94.90;;;;;;5030724;28;20037;-61
2022/08/09 10:59:28;;;;;;;17.35;12.35;;;26.30;94.60;;;;;;4680473;28;10000373;-59
2022/08/09 11:01:54;;;;;;;17.17;12.60;;;26.50;93.80;;;;;;5028279;28;20029;-61
2022/08/09 11:04:22;;;;;;;17.30;12.30;;;26.50;93.90;;;;;;5028356;28;20032;-61
2022/08/09 11:07:09;;;;;;;16.15;12.10;;;26.50;93.90;;;;;;5028051;28;20029;-62
2022/08/09 11:09:38;;;;;;;17.95;12.27;;;26.50;93.80;;;;;;5019926;28;20050;-62
2022/08/09 11:12:15;;;;;;;17.80;12.00;;;26.50;93.70;;;;;;5027233;28;20137;-62
2022/08/09 11:14:46;;;;;;;17.40;12.40;;;26.50;92.50;;;;;;5028167;28;20033;-61
2022/08/09 11:17:14;;;;;;;18.80;12.65;;;;;;;;;;5027824;28;20129;-60
2022/08/09 11:19:50;;;;;;;16.27;12.13;;;;;;;;;;5028051;28;20034;-61
2022/08/09 11:22:17;;;;;;;17.40;12.13;;;;;;;;;;5028048;28;20498;-62
2022/08/09 11:25:03;;;;;;;16.08;12.30;;;;;;;;;;5027391;28;20033;-62
2022/08/09 11:27:29;;;;;;;18.35;12.90;;;;;;;;;;5027281;28;20021;-61
2022/08/09 11:29:56;;;;;;;17.15;12.95;;;;;;;;;;5028408;28;20108;-61
2022/08/09 11:32:40;;;;;;;18.33;12.90;;;;;;;;;;5026908;28;20026;-60
2022/08/09 11:35:16;;;;;;;16.13;12.05;;;;;;;;;;5028173;28;20040;-62
2022/08/09 11:37:43;;;;;;;18.23;12.60;;;;;;;;;;5027928;28;20397;-61
2022/08/09 11:40:14;;;;;;;17.77;13.00;;;;;;;;;;5028110;28;20037;-61
2022/08/09 11:42:45;;;;;;;19.02;13.40;;;;;;;;;;5028979;28;20080;-61
2022/08/09 11:45:28;;;;;;;17.48;12.90;;;;;;;;;;5026695;28;20072;-61
2022/08/09 11:47:59;;;;;;;17.67;12.82;;;;;;;;;;5025204;28;20108;-60
2022/08/09 11:50:26;;;;;;;18.55;12.90;;;;;;;;;;5027793;28;20049;-62
2022/08/09 11:52:58;;;;;;;19.20;12.82;;;;;;;;;;5027326;28;20516;-62
2022/08/09 11:55:37;;;;;;;17.27;12.80;;;;;;;;;;5027819;28;20039;-61
2022/08/09 11:58:27;;;;;;;18.33;13.23;;;;;;;;;;5026526;28;20061;-69
2022/08/09 12:00:58;;;;;;;17.60;12.90;;;;;;;;;;5029148;28;20107;-69
2022/08/09 12:03:25;;;;;;;17.90;13.43;;;;;;;;;;5030567;28;20363;-69
2022/08/09 12:05:53;;;;;;;16.35;13.30;;;;;;;;;;5030531;28;20045;-69
2022/08/09 12:08:20;;;;;;;16.63;13.35;;;;;;;;;;5028195;28;20037;-70
2022/08/09 12:10:56;;;;;;;17.38;13.55;;;;;;;;;;5030100;28;20032;-69
2022/08/09 12:13:28;;;;;;;17.27;13.68;;;;;;;;;;5030841;28;20398;-70
2022/08/09 12:16:01;;;;;;;18.98;13.05;;;;;;;;;;5029373;28;20032;-69
2022/08/09 12:18:27;;;;;;;16.92;12.57;;;;;;;;;;5011689;28;20033;-70
2022/08/09 12:20:53;;;;;;;16.50;13.30;;;;;;;;;;5031160;28;20029;-62
2022/08/09 12:23:19;;;;;;;17.20;13.15;;;;;;;;;;5033280;28;20660;-62
2022/08/09 12:25:49;;;;;;;17.10;13.25;;;;;;;;;;5044066;28;20525;-62
2022/08/09 12:28:17;;;;;;;16.45;12.68;;;;;;;;;;5050658;28;20028;-63
2022/08/09 12:30:43;;;;;;;16.50;13.43;;;;;;;;;;5039926;28;20041;-61
2022/08/09 12:33:09;;;;;;;17.10;13.43;;;;;;;;;;5030911;28;20029;-63
2022/08/09 12:35:36;;;;;;;16.20;13.38;;;;;;;;;;5030305;28;20021;-62
2022/08/09 12:38:22;;;;;;;16.17;13.40;;;;;;;;;;5029713;28;20556;-63
2022/08/09 12:40:49;;;;;;;16.15;12.80;;;;;;;;;;5029356;28;20025;-62
2022/08/09 12:43:15;;;;;;;;;;;;;;;;;;5031753;28;20029;-63
2022/08/09 12:45:42;;;;;;;16.77;13.57;;;;;;;;;;5031365;28;19916;-63
2022/08/09 12:48:09;;;;;;;18.38;14.00;;;;;;;;;;5030412;28;20075;-61
2022/08/09 12:50:35;;;;;;;17.88;14.15;;;;;;;;;;5033357;28;20028;-63
2022/08/09 12:53:02;;;;;;;17.53;13.50;;;;;;;;;;5033565;28;20025;-60
2022/08/09 12:55:30;;;;;;;16.58;13.23;;;;;;;;;;5033947;28;20040;-63
2022/08/09 12:57:56;;;;;;;16.83;13.82;;;;;;;;;;5033083;28;20385;-64
2022/08/09 13:00:24;;;;;;;18.95;13.85;;;;;;;;;;5033905;28;20021;-65
2022/08/09 13:02:54;;;;;;;16.75;13.13;;;;;;;;;;5033610;28;20044;-63
2022/08/09 13:05:24;;;;;;;16.55;13.63;;;;;;;;;;5033697;28;20060;-64
2022/08/09 13:08:13;;;;;;;16.67;13.00;;;;;;;;;;5032862;28;20029;-63
2022/08/09 13:10:46;;;;;;;17.33;13.55;;;;;;;;;;5031670;28;20063;-63
2022/08/09 13:13:13;;;;;;;19.25;13.50;;;;;;;;;;4675884;28;10001615;-62
2022/08/09 13:15:52;;;;;;;19.00;14.07;;;;;;;;;;5029704;28;20547;-64
2022/08/09 13:18:19;;;;;;;17.35;13.10;;;;;;;;;;5025921;28;20101;-64
2022/08/09 13:20:45;;;;;;;16.67;13.50;;;;;;;;;;5029669;28;20505;-63
2022/08/09 13:23:11;;;;;;;17.55;13.60;;;;;;;;;;5026701;28;20026;-63
2022/08/09 13:25:38;;;;;;;16.63;13.40;;;;;;;;;;5029733;28;20025;-63
2022/08/09 13:28:11;;;;;;;15.98;13.50;;;;;;;;;;5029411;28;20467;-62
2022/08/09 13:30:37;;;;;;;18.65;13.80;;;;;;;;;;5030274;28;20347;-64
2022/08/09 13:33:04;;;;;;;15.98;13.20;;;;;;;;;;5029972;28;20033;-63
2022/08/09 13:35:30;;;;;;;17.85;13.27;;;;;;;;;;5028351;28;20500;-63
2022/08/09 13:37:56;;;;;;;17.38;13.60;;;;;;;;;;5027973;28;20033;-63
2022/08/09 13:40:23;;;;;;;16.75;13.45;;;;;;;;;;5029537;28;20129;-65
2022/08/09 13:42:49;;;;;;;19.07;13.20;;;;;;;;;;5029673;28;20025;-64
2022/08/09 13:45:16;;;;;;;19.58;15.75;;;;;;;;;;5029525;28;20355;-64
2022/08/09 13:47:42;;;;;;;16.63;13.57;;;;;;;;;;5026437;28;20034;-59
2022/08/09 13:50:10;;;;;;;16.70;13.23;;;;;;;;;;5027250;28;20564;-63
2022/08/09 13:52:37;;;;;;;16.20;12.93;;;;;;;;;;5029066;28;20096;-62
2022/08/09 13:55:04;;;;;;;17.70;13.05;;;;;;;;;;5029113;28;20048;-64
2022/08/09 13:57:31;;;;;;;18.33;13.60;;;;;;;;;;5028925;28;20022;-62
2022/08/09 13:59:57;;;;;;;17.50;12.73;;;;;;;;;;5028964;28;20069;-64
2022/08/09 14:02:23;;;;;;;17.33;12.30;;;;;;;;;;5029190;28;20268;-64
2022/08/09 14:04:49;;;;;;;18.50;12.68;;;;;;;;;;5027971;28;20546;-62
2022/08/09 14:07:15;;;;;;;17.20;12.98;;;;;;;;;;5028328;28;20079;-61